sensor_id;sensor_type;location;lat;lon;timestamp;temperature;humidity
54642;DHT22;40536;53.194;5.728;2023-12-20T00:00:25;6.30;99.90
54642;DHT22;40536;53.194;5.728;2023-12-20T00:02:51;7.40;99.90
54642;DHT22;40536;53.194;5.728;2023-12-20T00:05:16;6.30;99.90
54642;DHT22;40536;53.194;5.728;2023-12-20T00:07:42;6.30;99.90
54642;DHT22;40536;53.194;5.728;2023-12-20T00:10:09;7.30;99.90
54642;DHT22;40536;53.194;5.728;2023-12-20T00:12:35;6.20;99.90
54642;DHT22;40536;53.194;5.728;2023-12-20T00:15:00;6.20;99.90
54642;DHT22;40536;53.194;5.728;2023-12-20T00:17:27;6.70;99.90
54642;DHT22;40536;53.194;5.728;2023-12-20T00:19:53;7.50;99.90
54642;DHT22;40536;53.194;5.728;2023-12-20T00:22:19;6.30;99.90
54642;DHT22;40536;53.194;5.728;2023-12-20T00:24:44;6.40;99.90
54642;DHT22;40536;53.194;5.728;2023-12-20T00:27:10;7.70;99.90
54642;DHT22;40536;53.194;5.728;2023-12-20T00:29:35;6.50;99.90
54642;DHT22;40536;53.194;5.728;2023-12-20T00:32:01;7.50;99.90
54642;DHT22;40536;53.194;5.728;2023-12-20T00:34:27;6.60;99.90
54642;DHT22;40536;53.194;5.728;2023-12-20T00:36:52;7.60;99.90
54642;DHT22;40536;53.194;5.728;2023-12-20T00:39:18;7.60;99.90
54642;DHT22;40536;53.194;5.728;2023-12-20T00:41:43;6.90;99.90
54642;DHT22;40536;53.194;5.728;2023-12-20T00:44:09;6.60;99.90
54642;DHT22;40536;53.194;5.728;2023-12-20T00:46:35;7.10;99.90
54642;DHT22;40536;53.194;5.728;2023-12-20T00:49:00;7.80;99.90
54642;DHT22;40536;53.194;5.728;2023-12-20T00:51:26;7.20;99.90
54642;DHT22;40536;53.194;5.728;2023-12-20T00:53:52;6.90;99.90
54642;DHT22;40536;53.194;5.728;2023-12-20T00:56:20;7.10;99.90
54642;DHT22;40536;53.194;5.728;2023-12-20T00:58:46;7.60;99.90
54642;DHT22;40536;53.194;5.728;2023-12-20T01:01:12;6.70;99.90
54642;DHT22;40536;53.194;5.728;2023-12-20T01:03:38;7.90;99.90
54642;DHT22;40536;53.194;5.728;2023-12-20T01:06:04;7.80;99.90
54642;DHT22;40536;53.194;5.728;2023-12-20T01:08:30;6.90;99.90
54642;DHT22;40536;53.194;5.728;2023-12-20T01:10:56;7.60;99.90
54642;DHT22;40536;53.194;5.728;2023-12-20T01:13:22;7.10;99.90
54642;DHT22;40536;53.194;5.728;2023-12-20T01:15:47;6.80;99.90
54642;DHT22;40536;53.194;5.728;2023-12-20T01:18:14;6.80;99.90
54642;DHT22;40536;53.194;5.728;2023-12-20T01:20:40;7.00;99.90
54642;DHT22;40536;53.194;5.728;2023-12-20T01:23:05;7.30;99.90
54642;DHT22;40536;53.194;5.728;2023-12-20T01:25:31;7.60;99.90
54642;DHT22;40536;53.194;5.728;2023-12-20T01:27:56;6.90;99.90
54642;DHT22;40536;53.194;5.728;2023-12-20T01:30:22;6.90;99.90
54642;DHT22;40536;53.194;5.728;2023-12-20T01:32:48;7.00;99.90
54642;DHT22;40536;53.194;5.728;2023-12-20T01:35:13;7.70;99.90
54642;DHT22;40536;53.194;5.728;2023-12-20T01:37:40;7.00;99.90
54642;DHT22;40536;53.194;5.728;2023-12-20T01:40:06;7.80;99.90
54642;DHT22;40536;53.194;5.728;2023-12-20T01:42:31;7.00;99.90
54642;DHT22;40536;53.194;5.728;2023-12-20T01:44:57;7.00;99.90
54642;DHT22;40536;53.194;5.728;2023-12-20T01:47:23;8.10;99.90
54642;DHT22;40536;53.194;5.728;2023-12-20T01:49:49;7.80;99.90
54642;DHT22;40536;53.194;5.728;2023-12-20T01:52:15;7.00;99.90
54642;DHT22;40536;53.194;5.728;2023-12-20T01:54:42;7.10;99.90
54642;DHT22;40536;53.194;5.728;2023-12-20T01:57:08;8.10;99.90
54642;DHT22;40536;53.194;5.728;2023-12-20T01:59:35;7.10;99.90
54642;DHT22;40536;53.194;5.728;2023-12-20T02:02:01;7.20;99.90
54642;DHT22;40536;53.194;5.728;2023-12-20T02:04:28;7.20;99.90
54642;DHT22;40536;53.194;5.728;2023-12-20T02:06:55;7.20;99.90
54642;DHT22;40536;53.194;5.728;2023-12-20T02:09:22;7.20;99.90
54642;DHT22;40536;53.194;5.728;2023-12-20T02:11:48;7.10;99.90
54642;DHT22;40536;53.194;5.728;2023-12-20T02:14:14;8.00;99.90
54642;DHT22;40536;53.194;5.728;2023-12-20T02:16:40;7.30;99.90
54642;DHT22;40536;53.194;5.728;2023-12-20T02:19:09;7.10;99.90
54642;DHT22;40536;53.194;5.728;2023-12-20T02:21:37;7.10;99.90
54642;DHT22;40536;53.194;5.728;2023-12-20T02:24:02;7.10;99.90
54642;DHT22;40536;53.194;5.728;2023-12-20T02:26:28;7.10;99.90
54642;DHT22;40536;53.194;5.728;2023-12-20T02:28:54;7.20;99.90
54642;DHT22;40536;53.194;5.728;2023-12-20T02:31:23;7.20;99.90
54642;DHT22;40536;53.194;5.728;2023-12-20T02:33:49;7.10;99.90
54642;DHT22;40536;53.194;5.728;2023-12-20T02:36:16;7.10;99.90
54642;DHT22;40536;53.194;5.728;2023-12-20T02:38:41;7.40;99.90
54642;DHT22;40536;53.194;5.728;2023-12-20T02:41:07;7.40;99.90
54642;DHT22;40536;53.194;5.728;2023-12-20T02:43:33;7.10;99.90
54642;DHT22;40536;53.194;5.728;2023-12-20T02:45:58;7.20;99.90
54642;DHT22;40536;53.194;5.728;2023-12-20T02:48:27;7.90;99.90
54642;DHT22;40536;53.194;5.728;2023-12-20T02:50:53;7.10;99.90
54642;DHT22;40536;53.194;5.728;2023-12-20T02:53:18;7.10;99.90
54642;DHT22;40536;53.194;5.728;2023-12-20T02:55:44;7.10;99.90
54642;DHT22;40536;53.194;5.728;2023-12-20T02:58:09;7.20;99.90
54642;DHT22;40536;53.194;5.728;2023-12-20T03:00:35;8.20;99.90
54642;DHT22;40536;53.194;5.728;2023-12-20T03:03:00;7.10;99.90
54642;DHT22;40536;53.194;5.728;2023-12-20T03:05:26;8.10;99.90
54642;DHT22;40536;53.194;5.728;2023-12-20T03:07:52;7.20;99.90
54642;DHT22;40536;53.194;5.728;2023-12-20T03:10:18;7.20;99.90
54642;DHT22;40536;53.194;5.728;2023-12-20T03:12:44;7.40;99.90
54642;DHT22;40536;53.194;5.728;2023-12-20T03:15:11;7.20;99.90
54642;DHT22;40536;53.194;5.728;2023-12-20T03:17:36;8.10;99.90
54642;DHT22;40536;53.194;5.728;2023-12-20T03:20:02;7.30;99.90
54642;DHT22;40536;53.194;5.728;2023-12-20T03:22:28;7.30;99.90
54642;DHT22;40536;53.194;5.728;2023-12-20T03:24:53;7.40;99.90
54642;DHT22;40536;53.194;5.728;2023-12-20T03:27:19;8.40;99.90
54642;DHT22;40536;53.194;5.728;2023-12-20T03:29:44;8.40;99.90
54642;DHT22;40536;53.194;5.728;2023-12-20T03:32:10;7.40;99.90
54642;DHT22;40536;53.194;5.728;2023-12-20T03:34:36;8.40;99.90
54642;DHT22;40536;53.194;5.728;2023-12-20T03:37:03;7.40;99.90
54642;DHT22;40536;53.194;5.728;2023-12-20T03:39:28;7.80;99.90
54642;DHT22;40536;53.194;5.728;2023-12-20T03:41:54;7.50;99.90
54642;DHT22;40536;53.194;5.728;2023-12-20T03:44:20;7.80;99.90
54642;DHT22;40536;53.194;5.728;2023-12-20T03:46:46;8.50;99.90
54642;DHT22;40536;53.194;5.728;2023-12-20T03:49:11;8.30;99.90
54642;DHT22;40536;53.194;5.728;2023-12-20T03:51:37;7.40;99.90
54642;DHT22;40536;53.194;5.728;2023-12-20T03:54:03;7.50;99.90
54642;DHT22;40536;53.194;5.728;2023-12-20T03:56:28;7.50;99.90
54642;DHT22;40536;53.194;5.728;2023-12-20T03:58:54;8.50;99.90
54642;DHT22;40536;53.194;5.728;2023-12-20T04:01:20;7.50;99.90
54642;DHT22;40536;53.194;5.728;2023-12-20T04:03:45;7.50;99.90
54642;DHT22;40536;53.194;5.728;2023-12-20T04:06:17;7.50;99.90
54642;DHT22;40536;53.194;5.728;2023-12-20T04:08:42;7.80;99.90
54642;DHT22;40536;53.194;5.728;2023-12-20T04:11:08;7.50;99.90
54642;DHT22;40536;53.194;5.728;2023-12-20T04:13:34;7.80;99.90
54642;DHT22;40536;53.194;5.728;2023-12-20T04:15:59;7.60;99.90
54642;DHT22;40536;53.194;5.728;2023-12-20T04:18:25;7.50;99.90
54642;DHT22;40536;53.194;5.728;2023-12-20T04:20:51;7.60;99.90
54642;DHT22;40536;53.194;5.728;2023-12-20T04:23:17;8.20;99.90
54642;DHT22;40536;53.194;5.728;2023-12-20T04:25:42;8.70;99.90
54642;DHT22;40536;53.194;5.728;2023-12-20T04:28:08;8.70;99.90
54642;DHT22;40536;53.194;5.728;2023-12-20T04:30:33;7.60;99.90
54642;DHT22;40536;53.194;5.728;2023-12-20T04:32:59;8.50;99.90
54642;DHT22;40536;53.194;5.728;2023-12-20T04:35:25;8.60;99.90
54642;DHT22;40536;53.194;5.728;2023-12-20T04:37:51;8.90;99.90
54642;DHT22;40536;53.194;5.728;2023-12-20T04:40:17;7.70;99.90
54642;DHT22;40536;53.194;5.728;2023-12-20T04:42:42;7.70;99.90
54642;DHT22;40536;53.194;5.728;2023-12-20T04:45:08;7.70;99.90
54642;DHT22;40536;53.194;5.728;2023-12-20T04:47:34;7.60;99.90
54642;DHT22;40536;53.194;5.728;2023-12-20T04:49:59;7.60;99.90
54642;DHT22;40536;53.194;5.728;2023-12-20T04:52:25;7.70;99.90
54642;DHT22;40536;53.194;5.728;2023-12-20T04:54:51;7.70;99.90
54642;DHT22;40536;53.194;5.728;2023-12-20T04:57:16;7.70;99.90
54642;DHT22;40536;53.194;5.728;2023-12-20T04:59:42;7.70;99.90
54642;DHT22;40536;53.194;5.728;2023-12-20T05:02:08;7.80;99.90
54642;DHT22;40536;53.194;5.728;2023-12-20T05:04:33;8.50;99.90
54642;DHT22;40536;53.194;5.728;2023-12-20T05:06:59;7.80;99.90
54642;DHT22;40536;53.194;5.728;2023-12-20T05:09:25;8.00;99.90
54642;DHT22;40536;53.194;5.728;2023-12-20T05:11:50;7.80;99.90
54642;DHT22;40536;53.194;5.728;2023-12-20T05:14:16;7.80;99.90
54642;DHT22;40536;53.194;5.728;2023-12-20T05:16:42;8.30;99.90
54642;DHT22;40536;53.194;5.728;2023-12-20T05:19:07;9.00;99.90
54642;DHT22;40536;53.194;5.728;2023-12-20T05:21:33;9.10;99.90
54642;DHT22;40536;53.194;5.728;2023-12-20T05:23:59;8.40;99.90
54642;DHT22;40536;53.194;5.728;2023-12-20T05:26:25;7.90;99.90
54642;DHT22;40536;53.194;5.728;2023-12-20T05:28:50;8.50;99.90
54642;DHT22;40536;53.194;5.728;2023-12-20T05:31:16;7.90;99.90
54642;DHT22;40536;53.194;5.728;2023-12-20T05:33:42;8.10;99.90
54642;DHT22;40536;53.194;5.728;2023-12-20T05:36:08;7.90;99.90
54642;DHT22;40536;53.194;5.728;2023-12-20T05:38:37;7.90;99.90
54642;DHT22;40536;53.194;5.728;2023-12-20T05:41:02;9.00;99.90
54642;DHT22;40536;53.194;5.728;2023-12-20T05:43:29;7.90;99.90
54642;DHT22;40536;53.194;5.728;2023-12-20T05:45:54;8.90;99.90
54642;DHT22;40536;53.194;5.728;2023-12-20T05:48:20;7.90;99.90
54642;DHT22;40536;53.194;5.728;2023-12-20T05:50:46;7.90;99.90
54642;DHT22;40536;53.194;5.728;2023-12-20T05:53:11;7.90;99.90
54642;DHT22;40536;53.194;5.728;2023-12-20T05:55:37;9.10;99.90
54642;DHT22;40536;53.194;5.728;2023-12-20T05:58:03;8.30;99.90
54642;DHT22;40536;53.194;5.728;2023-12-20T06:00:28;7.90;99.90
54642;DHT22;40536;53.194;5.728;2023-12-20T06:02:54;8.20;99.90
54642;DHT22;40536;53.194;5.728;2023-12-20T06:05:20;7.90;99.90
54642;DHT22;40536;53.194;5.728;2023-12-20T06:07:45;8.40;99.90
54642;DHT22;40536;53.194;5.728;2023-12-20T06:10:13;7.90;99.90
54642;DHT22;40536;53.194;5.728;2023-12-20T06:12:39;7.90;99.90
54642;DHT22;40536;53.194;5.728;2023-12-20T06:15:05;7.90;99.90
54642;DHT22;40536;53.194;5.728;2023-12-20T06:17:31;7.90;99.90
54642;DHT22;40536;53.194;5.728;2023-12-20T06:19:57;8.00;99.90
54642;DHT22;40536;53.194;5.728;2023-12-20T06:22:23;8.60;99.90
54642;DHT22;40536;53.194;5.728;2023-12-20T06:24:48;8.40;99.90
54642;DHT22;40536;53.194;5.728;2023-12-20T06:27:14;8.00;99.90
54642;DHT22;40536;53.194;5.728;2023-12-20T06:29:40;8.00;99.90
54642;DHT22;40536;53.194;5.728;2023-12-20T06:32:07;8.00;99.90
54642;DHT22;40536;53.194;5.728;2023-12-20T06:34:34;8.00;99.90
54642;DHT22;40536;53.194;5.728;2023-12-20T06:36:59;8.00;99.90
54642;DHT22;40536;53.194;5.728;2023-12-20T06:39:25;9.30;99.90
54642;DHT22;40536;53.194;5.728;2023-12-20T06:41:51;8.00;99.90
54642;DHT22;40536;53.194;5.728;2023-12-20T06:44:16;9.00;99.90
54642;DHT22;40536;53.194;5.728;2023-12-20T06:46:44;8.00;99.90
54642;DHT22;40536;53.194;5.728;2023-12-20T06:49:09;8.00;99.90
54642;DHT22;40536;53.194;5.728;2023-12-20T06:51:36;8.10;99.90
54642;DHT22;40536;53.194;5.728;2023-12-20T06:54:01;8.60;99.90
54642;DHT22;40536;53.194;5.728;2023-12-20T06:56:28;8.00;99.90
54642;DHT22;40536;53.194;5.728;2023-12-20T06:58:53;8.30;99.90
54642;DHT22;40536;53.194;5.728;2023-12-20T07:01:19;8.20;99.90
54642;DHT22;40536;53.194;5.728;2023-12-20T07:03:45;7.90;99.90
54642;DHT22;40536;53.194;5.728;2023-12-20T07:06:10;8.90;99.90
54642;DHT22;40536;53.194;5.728;2023-12-20T07:08:36;8.00;99.90
54642;DHT22;40536;53.194;5.728;2023-12-20T07:11:02;7.90;99.90
54642;DHT22;40536;53.194;5.728;2023-12-20T07:13:28;7.90;99.90
54642;DHT22;40536;53.194;5.728;2023-12-20T07:15:55;9.00;99.90
54642;DHT22;40536;53.194;5.728;2023-12-20T07:18:20;8.00;99.90
54642;DHT22;40536;53.194;5.728;2023-12-20T07:20:46;9.10;99.90
54642;DHT22;40536;53.194;5.728;2023-12-20T07:23:12;7.90;99.90
54642;DHT22;40536;53.194;5.728;2023-12-20T07:25:38;8.00;99.90
54642;DHT22;40536;53.194;5.728;2023-12-20T07:28:03;9.10;99.90
54642;DHT22;40536;53.194;5.728;2023-12-20T07:30:30;8.00;99.90
54642;DHT22;40536;53.194;5.728;2023-12-20T07:32:55;9.20;99.90
54642;DHT22;40536;53.194;5.728;2023-12-20T07:35:25;8.60;99.90
54642;DHT22;40536;53.194;5.728;2023-12-20T07:37:50;8.00;99.90
54642;DHT22;40536;53.194;5.728;2023-12-20T07:40:16;8.00;99.90
54642;DHT22;40536;53.194;5.728;2023-12-20T07:42:45;8.50;99.90
54642;DHT22;40536;53.194;5.728;2023-12-20T07:45:10;8.60;99.90
54642;DHT22;40536;53.194;5.728;2023-12-20T07:47:37;8.00;99.90
54642;DHT22;40536;53.194;5.728;2023-12-20T07:50:03;9.20;99.90
54642;DHT22;40536;53.194;5.728;2023-12-20T07:52:29;8.10;99.90
54642;DHT22;40536;53.194;5.728;2023-12-20T07:54:55;7.90;99.90
54642;DHT22;40536;53.194;5.728;2023-12-20T07:57:21;8.40;99.90
54642;DHT22;40536;53.194;5.728;2023-12-20T07:59:47;7.60;99.90
54642;DHT22;40536;53.194;5.728;2023-12-20T08:02:12;7.30;99.90
54642;DHT22;40536;53.194;5.728;2023-12-20T08:04:38;7.50;99.90
54642;DHT22;40536;53.194;5.728;2023-12-20T08:07:04;8.20;99.90
54642;DHT22;40536;53.194;5.728;2023-12-20T08:09:29;8.30;99.90
54642;DHT22;40536;53.194;5.728;2023-12-20T08:11:56;7.30;99.90
54642;DHT22;40536;53.194;5.728;2023-12-20T08:14:22;8.30;99.90
54642;DHT22;40536;53.194;5.728;2023-12-20T08:16:47;7.40;99.90
54642;DHT22;40536;53.194;5.728;2023-12-20T08:19:13;7.50;99.90
54642;DHT22;40536;53.194;5.728;2023-12-20T08:21:39;7.60;99.90
54642;DHT22;40536;53.194;5.728;2023-12-20T08:24:05;7.60;99.90
54642;DHT22;40536;53.194;5.728;2023-12-20T08:26:30;7.70;99.90
54642;DHT22;40536;53.194;5.728;2023-12-20T08:28:56;8.20;99.90
54642;DHT22;40536;53.194;5.728;2023-12-20T08:31:22;7.80;99.90
54642;DHT22;40536;53.194;5.728;2023-12-20T08:33:48;7.90;99.90
54642;DHT22;40536;53.194;5.728;2023-12-20T08:36:16;8.10;99.90
54642;DHT22;40536;53.194;5.728;2023-12-20T08:38:43;7.90;99.90
54642;DHT22;40536;53.194;5.728;2023-12-20T08:41:09;8.00;99.90
54642;DHT22;40536;53.194;5.728;2023-12-20T08:43:35;8.10;99.90
54642;DHT22;40536;53.194;5.728;2023-12-20T08:46:01;8.00;99.90
54642;DHT22;40536;53.194;5.728;2023-12-20T08:48:27;8.00;99.90
54642;DHT22;40536;53.194;5.728;2023-12-20T08:50:53;8.10;99.90
54642;DHT22;40536;53.194;5.728;2023-12-20T08:53:19;8.30;99.90
54642;DHT22;40536;53.194;5.728;2023-12-20T08:55:45;9.00;99.90
54642;DHT22;40536;53.194;5.728;2023-12-20T08:58:11;9.00;99.90
54642;DHT22;40536;53.194;5.728;2023-12-20T09:00:36;7.70;99.90
54642;DHT22;40536;53.194;5.728;2023-12-20T09:03:02;7.60;99.90
54642;DHT22;40536;53.194;5.728;2023-12-20T09:05:28;7.20;99.90
54642;DHT22;40536;53.194;5.728;2023-12-20T09:07:54;7.20;99.90
54642;DHT22;40536;53.194;5.728;2023-12-20T09:10:20;7.60;99.90
54642;DHT22;40536;53.194;5.728;2023-12-20T09:12:56;6.80;99.90
54642;DHT22;40536;53.194;5.728;2023-12-20T09:15:26;6.70;99.90
54642;DHT22;40536;53.194;5.728;2023-12-20T09:17:53;6.70;99.90
54642;DHT22;40536;53.194;5.728;2023-12-20T09:20:19;7.50;99.90
54642;DHT22;40536;53.194;5.728;2023-12-20T09:22:45;6.60;99.90
54642;DHT22;40536;53.194;5.728;2023-12-20T09:25:10;7.60;99.90
54642;DHT22;40536;53.194;5.728;2023-12-20T09:27:38;6.50;99.90
54642;DHT22;40536;53.194;5.728;2023-12-20T09:30:04;6.70;99.90
54642;DHT22;40536;53.194;5.728;2023-12-20T09:32:31;6.50;99.90
54642;DHT22;40536;53.194;5.728;2023-12-20T09:34:56;6.60;99.90
54642;DHT22;40536;53.194;5.728;2023-12-20T09:37:25;6.60;99.90
54642;DHT22;40536;53.194;5.728;2023-12-20T09:39:51;6.70;99.90
54642;DHT22;40536;53.194;5.728;2023-12-20T09:42:24;7.60;99.90
54642;DHT22;40536;53.194;5.728;2023-12-20T09:44:54;8.10;99.90
54642;DHT22;40536;53.194;5.728;2023-12-20T09:47:20;6.80;99.90
54642;DHT22;40536;53.194;5.728;2023-12-20T09:49:50;6.70;99.90
54642;DHT22;40536;53.194;5.728;2023-12-20T09:52:16;6.70;99.90
54642;DHT22;40536;53.194;5.728;2023-12-20T09:54:43;6.60;99.90
54642;DHT22;40536;53.194;5.728;2023-12-20T09:57:09;6.60;99.90
54642;DHT22;40536;53.194;5.728;2023-12-20T09:59:35;7.70;99.90
54642;DHT22;40536;53.194;5.728;2023-12-20T10:02:01;7.90;99.90
54642;DHT22;40536;53.194;5.728;2023-12-20T10:04:32;6.70;99.90
54642;DHT22;40536;53.194;5.728;2023-12-20T10:07:02;6.80;99.90
54642;DHT22;40536;53.194;5.728;2023-12-20T10:09:31;7.00;99.90
54642;DHT22;40536;53.194;5.728;2023-12-20T10:11:58;7.20;99.90
54642;DHT22;40536;53.194;5.728;2023-12-20T10:14:24;7.30;99.90
54642;DHT22;40536;53.194;5.728;2023-12-20T10:16:50;7.40;99.90
54642;DHT22;40536;53.194;5.728;2023-12-20T10:19:17;8.50;99.90
54642;DHT22;40536;53.194;5.728;2023-12-20T10:21:43;7.50;99.90
54642;DHT22;40536;53.194;5.728;2023-12-20T10:24:17;8.70;99.90
54642;DHT22;40536;53.194;5.728;2023-12-20T10:26:43;8.40;99.90
54642;DHT22;40536;53.194;5.728;2023-12-20T10:29:10;7.80;99.90
54642;DHT22;40536;53.194;5.728;2023-12-20T10:31:36;8.50;99.90
54642;DHT22;40536;53.194;5.728;2023-12-20T10:34:05;8.30;99.90
54642;DHT22;40536;53.194;5.728;2023-12-20T10:36:32;7.60;99.90
54642;DHT22;40536;53.194;5.728;2023-12-20T10:38:59;7.70;99.90
54642;DHT22;40536;53.194;5.728;2023-12-20T10:41:27;7.70;99.90
54642;DHT22;40536;53.194;5.728;2023-12-20T10:43:59;7.70;99.90
54642;DHT22;40536;53.194;5.728;2023-12-20T10:46:26;8.40;99.90
54642;DHT22;40536;53.194;5.728;2023-12-20T10:48:54;7.80;99.90
54642;DHT22;40536;53.194;5.728;2023-12-20T10:51:21;8.60;99.90
54642;DHT22;40536;53.194;5.728;2023-12-20T10:53:52;7.80;99.90
54642;DHT22;40536;53.194;5.728;2023-12-20T10:56:19;7.80;99.90
54642;DHT22;40536;53.194;5.728;2023-12-20T10:58:49;9.00;99.90
54642;DHT22;40536;53.194;5.728;2023-12-20T11:01:16;7.90;99.90
54642;DHT22;40536;53.194;5.728;2023-12-20T11:03:49;8.00;99.90
54642;DHT22;40536;53.194;5.728;2023-12-20T11:06:36;8.10;99.90
54642;DHT22;40536;53.194;5.728;2023-12-20T11:09:14;8.90;99.90
54642;DHT22;40536;53.194;5.728;2023-12-20T11:14:31;8.30;99.90
54642;DHT22;40536;53.194;5.728;2023-12-20T11:17:08;8.40;99.90
54642;DHT22;40536;53.194;5.728;2023-12-20T11:22:27;8.90;99.90
54642;DHT22;40536;53.194;5.728;2023-12-20T11:24:59;9.10;99.90
54642;DHT22;40536;53.194;5.728;2023-12-20T11:27:27;9.80;99.90
54642;DHT22;40536;53.194;5.728;2023-12-20T11:29:56;8.80;99.90
54642;DHT22;40536;53.194;5.728;2023-12-20T11:34:54;8.70;99.90
54642;DHT22;40536;53.194;5.728;2023-12-20T11:37:20;9.80;99.90
54642;DHT22;40536;53.194;5.728;2023-12-20T11:39:55;8.90;99.90
54642;DHT22;40536;53.194;5.728;2023-12-20T11:42:25;9.70;99.90
54642;DHT22;40536;53.194;5.728;2023-12-20T11:44:51;8.50;99.90
54642;DHT22;40536;53.194;5.728;2023-12-20T11:47:17;9.70;99.90
54642;DHT22;40536;53.194;5.728;2023-12-20T11:49:46;9.60;99.90
54642;DHT22;40536;53.194;5.728;2023-12-20T11:52:12;9.40;99.90
54642;DHT22;40536;53.194;5.728;2023-12-20T11:54:38;9.20;99.90
54642;DHT22;40536;53.194;5.728;2023-12-20T11:57:04;8.50;99.90
54642;DHT22;40536;53.194;5.728;2023-12-20T11:59:31;8.50;99.90
54642;DHT22;40536;53.194;5.728;2023-12-20T12:01:56;8.90;99.90
54642;DHT22;40536;53.194;5.728;2023-12-20T12:04:26;8.30;99.90
54642;DHT22;40536;53.194;5.728;2023-12-20T12:06:52;8.30;99.90
54642;DHT22;40536;53.194;5.728;2023-12-20T12:09:18;8.60;99.90
54642;DHT22;40536;53.194;5.728;2023-12-20T12:11:44;9.10;99.90
54642;DHT22;40536;53.194;5.728;2023-12-20T12:14:10;8.20;99.90
54642;DHT22;40536;53.194;5.728;2023-12-20T12:16:36;8.20;99.90
54642;DHT22;40536;53.194;5.728;2023-12-20T12:19:01;8.40;99.90
54642;DHT22;40536;53.194;5.728;2023-12-20T12:21:27;8.10;99.90
54642;DHT22;40536;53.194;5.728;2023-12-20T12:23:53;9.00;99.90
54642;DHT22;40536;53.194;5.728;2023-12-20T12:26:19;7.90;99.90
54642;DHT22;40536;53.194;5.728;2023-12-20T12:28:44;8.80;99.90
54642;DHT22;40536;53.194;5.728;2023-12-20T12:31:14;7.80;99.90
54642;DHT22;40536;53.194;5.728;2023-12-20T12:33:44;7.80;99.90
54642;DHT22;40536;53.194;5.728;2023-12-20T12:36:10;7.50;99.90
54642;DHT22;40536;53.194;5.728;2023-12-20T12:38:36;7.50;99.90
54642;DHT22;40536;53.194;5.728;2023-12-20T12:41:02;7.40;99.90
54642;DHT22;40536;53.194;5.728;2023-12-20T12:43:28;7.30;99.90
54642;DHT22;40536;53.194;5.728;2023-12-20T12:45:55;7.30;99.90
54642;DHT22;40536;53.194;5.728;2023-12-20T12:48:21;7.20;99.90
54642;DHT22;40536;53.194;5.728;2023-12-20T12:50:51;8.20;99.90
54642;DHT22;40536;53.194;5.728;2023-12-20T12:53:18;7.20;99.90
54642;DHT22;40536;53.194;5.728;2023-12-20T12:55:44;8.10;99.90
54642;DHT22;40536;53.194;5.728;2023-12-20T12:58:09;7.50;99.90
54642;DHT22;40536;53.194;5.728;2023-12-20T13:00:35;7.00;99.90
54642;DHT22;40536;53.194;5.728;2023-12-20T13:03:01;7.00;99.90
54642;DHT22;40536;53.194;5.728;2023-12-20T13:05:26;7.00;99.90
54642;DHT22;40536;53.194;5.728;2023-12-20T13:07:53;6.90;99.90
54642;DHT22;40536;53.194;5.728;2023-12-20T13:10:19;6.90;99.90
54642;DHT22;40536;53.194;5.728;2023-12-20T13:12:44;6.80;99.90
54642;DHT22;40536;53.194;5.728;2023-12-20T13:15:10;6.80;99.90
54642;DHT22;40536;53.194;5.728;2023-12-20T13:17:36;6.80;99.90
54642;DHT22;40536;53.194;5.728;2023-12-20T13:20:03;6.70;99.90
54642;DHT22;40536;53.194;5.728;2023-12-20T13:22:29;6.70;99.90
54642;DHT22;40536;53.194;5.728;2023-12-20T13:24:54;6.70;99.90
54642;DHT22;40536;53.194;5.728;2023-12-20T13:27:20;6.60;99.90
54642;DHT22;40536;53.194;5.728;2023-12-20T13:29:45;6.60;99.90
54642;DHT22;40536;53.194;5.728;2023-12-20T13:32:11;6.60;99.90
54642;DHT22;40536;53.194;5.728;2023-12-20T13:34:37;6.60;99.90
54642;DHT22;40536;53.194;5.728;2023-12-20T13:37:03;7.10;99.90
54642;DHT22;40536;53.194;5.728;2023-12-20T13:39:29;6.70;99.90
54642;DHT22;40536;53.194;5.728;2023-12-20T13:41:56;6.70;99.90
54642;DHT22;40536;53.194;5.728;2023-12-20T13:44:25;7.90;99.90
54642;DHT22;40536;53.194;5.728;2023-12-20T13:46:51;6.70;99.90
54642;DHT22;40536;53.194;5.728;2023-12-20T13:49:17;6.80;99.90
54642;DHT22;40536;53.194;5.728;2023-12-20T13:51:44;6.80;99.90
54642;DHT22;40536;53.194;5.728;2023-12-20T13:54:09;6.80;99.90
54642;DHT22;40536;53.194;5.728;2023-12-20T13:56:36;8.10;99.90
54642;DHT22;40536;53.194;5.728;2023-12-20T13:59:04;7.90;99.90
54642;DHT22;40536;53.194;5.728;2023-12-20T14:01:29;6.80;99.90
54642;DHT22;40536;53.194;5.728;2023-12-20T14:03:55;6.90;99.90
54642;DHT22;40536;53.194;5.728;2023-12-20T14:06:21;6.90;99.90
54642;DHT22;40536;53.194;5.728;2023-12-20T14:08:46;6.90;99.90
54642;DHT22;40536;53.194;5.728;2023-12-20T14:11:13;7.90;99.90
54642;DHT22;40536;53.194;5.728;2023-12-20T14:13:41;6.80;99.90
54642;DHT22;40536;53.194;5.728;2023-12-20T14:16:06;7.50;99.90
54642;DHT22;40536;53.194;5.728;2023-12-20T14:18:32;8.00;99.90
54642;DHT22;40536;53.194;5.728;2023-12-20T14:20:57;7.80;99.90
54642;DHT22;40536;53.194;5.728;2023-12-20T14:23:23;7.80;99.90
54642;DHT22;40536;53.194;5.728;2023-12-20T14:25:49;6.90;99.90
54642;DHT22;40536;53.194;5.728;2023-12-20T14:28:15;7.90;99.90
54642;DHT22;40536;53.194;5.728;2023-12-20T14:30:40;7.00;99.90
54642;DHT22;40536;53.194;5.728;2023-12-20T14:33:10;7.10;99.90
54642;DHT22;40536;53.194;5.728;2023-12-20T14:35:36;7.70;99.90
54642;DHT22;40536;53.194;5.728;2023-12-20T14:38:02;8.50;99.90
54642;DHT22;40536;53.194;5.728;2023-12-20T14:40:27;7.30;99.90
54642;DHT22;40536;53.194;5.728;2023-12-20T14:42:53;7.70;99.90
54642;DHT22;40536;53.194;5.728;2023-12-20T14:45:19;8.10;99.90
54642;DHT22;40536;53.194;5.728;2023-12-20T14:47:44;8.30;99.90
54642;DHT22;40536;53.194;5.728;2023-12-20T14:50:11;7.40;99.90
54642;DHT22;40536;53.194;5.728;2023-12-20T14:52:42;8.30;99.90
54642;DHT22;40536;53.194;5.728;2023-12-20T14:55:08;8.00;99.90
54642;DHT22;40536;53.194;5.728;2023-12-20T14:57:34;8.20;99.90
54642;DHT22;40536;53.194;5.728;2023-12-20T15:00:00;7.50;99.90
54642;DHT22;40536;53.194;5.728;2023-12-20T15:02:25;7.50;99.90
54642;DHT22;40536;53.194;5.728;2023-12-20T15:04:51;7.50;99.90
54642;DHT22;40536;53.194;5.728;2023-12-20T15:07:17;7.60;99.90
54642;DHT22;40536;53.194;5.728;2023-12-20T15:09:43;7.60;99.90
54642;DHT22;40536;53.194;5.728;2023-12-20T15:12:12;7.60;99.90
54642;DHT22;40536;53.194;5.728;2023-12-20T15:14:38;8.50;99.90
54642;DHT22;40536;53.194;5.728;2023-12-20T15:17:03;8.30;99.90
54642;DHT22;40536;53.194;5.728;2023-12-20T15:19:30;8.40;99.90
54642;DHT22;40536;53.194;5.728;2023-12-20T15:21:56;7.70;99.90
54642;DHT22;40536;53.194;5.728;2023-12-20T15:24:24;8.80;99.90
54642;DHT22;40536;53.194;5.728;2023-12-20T15:26:54;8.20;99.90
54642;DHT22;40536;53.194;5.728;2023-12-20T15:29:20;8.80;99.90
54642;DHT22;40536;53.194;5.728;2023-12-20T15:31:46;7.70;99.90
54642;DHT22;40536;53.194;5.728;2023-12-20T15:34:12;7.30;99.90
54642;DHT22;40536;53.194;5.728;2023-12-20T15:36:39;7.40;99.90
54642;DHT22;40536;53.194;5.728;2023-12-20T15:39:05;7.30;99.90
54642;DHT22;40536;53.194;5.728;2023-12-20T15:41:31;7.40;99.90
54642;DHT22;40536;53.194;5.728;2023-12-20T15:43:57;7.40;99.90
54642;DHT22;40536;53.194;5.728;2023-12-20T15:46:22;8.50;99.90